createdAt,value
2023-02-05T00:01:09.896Z,5.40
2023-02-05T00:05:08.853Z,5.68
2023-02-05T00:10:08.632Z,5.15
2023-02-05T00:15:08.586Z,5.60
2023-02-05T00:20:08.528Z,5.50
2023-02-05T00:25:08.514Z,5.60
2023-02-05T00:30:08.432Z,5.50
2023-02-05T00:35:08.385Z,6.00
2023-02-05T00:40:08.316Z,5.97
2023-02-05T00:45:08.248Z,5.38
2023-02-05T00:50:08.200Z,6.07
2023-02-05T00:55:08.152Z,5.82
2023-02-05T01:00:08.106Z,6.10
2023-02-05T01:05:08.044Z,6.38
2023-02-05T01:10:08.036Z,7.03
2023-02-05T01:15:07.978Z,6.07
2023-02-05T01:20:07.894Z,7.65
2023-02-05T01:25:08.870Z,7.03
2023-02-05T01:30:08.808Z,7.28
2023-02-05T01:35:08.786Z,6.70
2023-02-05T01:40:08.742Z,5.72
2023-02-05T01:45:08.696Z,6.38
2023-02-05T01:50:08.656Z,6.32
2023-02-05T01:55:08.617Z,5.82
2023-02-05T02:00:08.546Z,5.82
2023-02-05T02:05:08.549Z,7.00
2023-02-05T02:10:08.548Z,5.90
2023-02-05T02:15:08.507Z,7.53
2023-02-05T02:20:08.481Z,8.25
2023-02-05T02:25:08.453Z,6.55
2023-02-05T02:30:08.387Z,6.00
2023-02-05T02:35:08.368Z,6.63
2023-02-05T02:40:08.296Z,6.05
2023-02-05T02:45:08.253Z,6.03
2023-02-05T02:50:08.186Z,7.30
2023-02-05T02:55:08.150Z,6.97
2023-02-05T03:00:08.067Z,7.18
2023-02-05T03:05:08.045Z,7.03
2023-02-05T03:10:07.995Z,7.50
2023-02-05T03:15:07.965Z,7.95
2023-02-05T03:20:07.951Z,9.20
2023-02-05T03:25:07.891Z,9.68
2023-02-05T03:30:08.836Z,10.65
2023-02-05T03:35:08.789Z,12.43
2023-02-05T03:40:08.934Z,11.88
2023-02-05T03:45:17.980Z,0
2023-02-05T03:50:07.878Z,11.98
2023-02-05T03:55:08.822Z,11.63
2023-02-05T04:00:08.753Z,12.23
2023-02-05T04:05:08.702Z,14.32
2023-02-05T04:10:08.653Z,15.23
2023-02-05T04:15:08.661Z,15.07
2023-02-05T04:20:08.610Z,17.70
2023-02-05T04:25:08.619Z,17.42
2023-02-05T04:30:08.552Z,17.65
2023-02-05T04:35:08.462Z,16.73
2023-02-05T04:40:08.383Z,20.40
2023-02-05T04:45:08.313Z,19.33
2023-02-05T04:50:08.230Z,18.15
2023-02-05T04:55:08.230Z,17.95
2023-02-05T05:00:08.174Z,19.02
2023-02-05T05:05:02.478Z,18.70
2023-02-05T05:10:03.006Z,17.50
2023-02-05T05:15:02.366Z,18.50
2023-02-05T05:20:02.557Z,17.98
2023-02-05T05:25:02.621Z,18.48
2023-02-05T05:30:02.699Z,18.83
2023-02-05T05:35:02.816Z,16.52
2023-02-05T05:40:03.097Z,17.42
2023-02-05T05:45:02.142Z,16.00
2023-02-05T05:50:02.380Z,16.30
2023-02-05T05:55:02.458Z,14.82
2023-02-05T06:00:02.841Z,13.55
2023-02-05T06:05:02.896Z,13.07
2023-02-05T06:10:03.086Z,14.75
2023-02-05T06:15:02.377Z,14.63
2023-02-05T06:20:02.452Z,13.13
2023-02-05T06:25:02.829Z,13.75
2023-02-05T06:30:03.016Z,14.00
2023-02-05T06:35:02.193Z,10.52
2023-02-05T06:40:02.369Z,11.75
2023-02-05T06:45:02.538Z,10.65
2023-02-05T06:50:02.652Z,11.27
2023-02-05T06:55:02.812Z,11.50
2023-02-05T07:00:02.894Z,11.45
2023-02-05T07:05:02.999Z,14.02
2023-02-05T07:10:02.097Z,13.10
2023-02-05T07:15:02.190Z,12.93
2023-02-05T07:20:02.305Z,10.48
2023-02-05T07:25:04.615Z,5.80
2023-02-05T07:30:03.107Z,3.60
2023-02-05T07:35:02.118Z,2.78
2023-02-05T07:40:02.787Z,2.28
2023-02-05T07:45:02.989Z,1.98
2023-02-05T07:50:02.105Z,1.55
2023-02-05T07:55:02.294Z,1.90
2023-02-05T08:00:02.471Z,1.45
2023-02-05T08:05:02.752Z,1.30
2023-02-05T08:10:02.936Z,1.10
2023-02-05T08:15:02.126Z,1.45
2023-02-05T08:20:02.351Z,1.55
2023-02-05T08:25:02.502Z,2.45
2023-02-05T08:30:02.737Z,1.73
2023-02-05T08:35:03.624Z,2.10
2023-02-05T08:40:02.870Z,1.95
2023-02-05T08:45:03.025Z,2.10
2023-02-05T08:50:02.271Z,2.30
2023-02-05T08:55:02.396Z,2.60
2023-02-05T09:00:02.542Z,2.63
2023-02-05T09:05:08.894Z,2.42
2023-02-05T09:10:02.543Z,2.45
2023-02-05T09:15:02.669Z,2.92
2023-02-05T09:20:02.737Z,3.08
2023-02-05T09:25:03.072Z,2.40
2023-02-05T09:30:02.192Z,2.40
2023-02-05T09:35:02.581Z,2.60
2023-02-05T09:40:19.940Z,2.25
2023-02-05T09:45:02.403Z,2.60
2023-02-05T09:50:12.431Z,0
2023-02-05T09:55:02.449Z,2.78
2023-02-05T10:00:02.558Z,2.30
2023-02-05T10:05:02.698Z,2.92
2023-02-05T10:10:03.000Z,3.22
2023-02-05T10:15:02.339Z,2.97
2023-02-05T10:20:02.752Z,3.33
2023-02-05T10:25:02.978Z,3.05
2023-02-05T10:30:02.814Z,3.40
2023-02-05T10:35:03.481Z,3.30
2023-02-05T10:40:02.624Z,3.00
2023-02-05T10:45:02.989Z,3.45
2023-02-05T10:50:02.215Z,3.40
2023-02-05T10:55:02.469Z,3.80
2023-02-05T11:00:02.804Z,2.92
2023-02-05T11:05:03.258Z,3.47
2023-02-05T11:10:02.349Z,3.88
2023-02-05T11:15:02.696Z,3.13
2023-02-05T11:20:14.821Z,0
2023-02-05T11:25:03.130Z,3.47
2023-02-05T11:30:02.871Z,3.25
2023-02-05T11:35:02.313Z,2.33
2023-02-05T11:40:02.742Z,2.00
2023-02-05T11:45:03.219Z,2.83
2023-02-05T11:50:02.996Z,2.10
2023-02-05T11:55:02.574Z,2.60
2023-02-05T12:00:03.073Z,2.53
2023-02-05T12:05:02.309Z,3.13
2023-02-05T12:10:02.887Z,2.47
2023-02-05T12:15:03.441Z,2.97
2023-02-05T12:20:02.792Z,2.80
2023-02-05T12:25:02.891Z,3.08
2023-02-05T12:30:03.299Z,2.95
2023-02-05T12:35:12.704Z,0
2023-02-05T12:40:02.899Z,2.92
2023-02-05T12:45:03.364Z,2.92
2023-02-05T12:50:02.766Z,3.10
2023-02-05T12:55:05.942Z,2.75
2023-02-05T13:00:02.094Z,3.13
2023-02-05T13:05:02.311Z,2.80
2023-02-05T13:10:04.728Z,3.25
2023-02-05T13:15:02.910Z,3.03
2023-02-05T13:20:03.645Z,3.63
2023-02-05T13:25:02.780Z,2.58
2023-02-05T13:30:04.896Z,3.13
2023-02-05T13:35:02.338Z,3.47
2023-02-05T13:40:02.891Z,3.30
2023-02-05T13:45:03.108Z,2.88
2023-02-05T13:50:02.556Z,3.38
2023-02-05T13:55:02.756Z,3.70
2023-02-05T14:00:03.000Z,3.47
2023-02-05T14:05:02.351Z,3.50
2023-02-05T14:10:02.709Z,4.03
2023-02-05T14:15:03.182Z,3.80
2023-02-05T14:20:02.456Z,3.67
2023-02-05T14:25:04.283Z,3.83
2023-02-05T14:30:02.811Z,3.38
2023-02-05T14:35:03.116Z,3.47
2023-02-05T14:40:02.654Z,4.53
2023-02-05T14:45:02.858Z,3.83
2023-02-05T14:50:03.028Z,4.35
2023-02-05T14:55:02.161Z,4.05
2023-02-05T15:00:03.337Z,3.50
2023-02-05T15:05:02.744Z,4.22
2023-02-05T15:10:03.091Z,6.53
2023-02-05T15:15:02.396Z,6.63
2023-02-05T15:20:02.537Z,4.53
2023-02-05T15:25:02.684Z,4.45
2023-02-05T15:30:03.416Z,3.55
2023-02-05T15:35:05.302Z,3.40
2023-02-05T15:40:03.254Z,4.57
2023-02-05T15:45:12.691Z,0
2023-02-05T15:50:03.453Z,3.97
2023-02-05T15:55:02.853Z,4.20
2023-02-05T16:00:03.651Z,3.33
2023-02-05T16:05:03.254Z,3.70
2023-02-05T16:10:03.355Z,3.80
2023-02-05T16:15:02.786Z,4.00
2023-02-05T16:20:03.120Z,3.95
2023-02-05T16:25:02.511Z,3.30
2023-02-05T16:30:02.687Z,3.28
2023-02-05T16:35:02.904Z,3.47
2023-02-05T16:40:03.268Z,3.88
2023-02-05T16:45:02.708Z,4.40
2023-02-05T16:50:03.161Z,4.22
2023-02-05T16:55:02.632Z,4.00
2023-02-05T17:00:02.873Z,4.00
2023-02-05T17:05:03.478Z,3.33
2023-02-05T17:10:02.992Z,4.57
2023-02-05T17:15:02.167Z,4.00
2023-02-05T17:20:03.822Z,4.10
2023-02-05T17:25:04.274Z,4.93
2023-02-05T17:30:03.056Z,4.57
2023-02-05T17:35:02.752Z,3.85
2023-02-05T17:40:03.077Z,3.47
2023-02-05T17:45:02.628Z,4.10
2023-02-05T17:50:02.735Z,4.30
2023-02-05T17:55:04.096Z,3.50
2023-02-05T18:00:02.863Z,3.78
2023-02-05T18:05:03.149Z,3.63
2023-02-05T18:10:02.232Z,3.42
2023-02-05T18:15:02.579Z,3.75
2023-02-05T18:20:02.935Z,4.65
2023-02-05T18:25:03.187Z,4.85
2023-02-05T18:30:02.777Z,5.40
2023-02-05T18:35:03.081Z,4.47
2023-02-05T18:40:03.065Z,4.35
2023-02-05T18:45:02.661Z,4.70
2023-02-05T18:50:02.950Z,5.03
2023-02-05T18:55:02.303Z,4.78
2023-02-05T19:00:02.561Z,5.72
2023-02-05T19:05:03.051Z,4.28
2023-02-05T19:10:02.388Z,4.25
2023-02-05T19:15:02.648Z,4.32
2023-02-05T19:20:02.868Z,5.05
2023-02-05T19:25:02.999Z,4.43
2023-02-05T19:30:02.248Z,5.00
2023-02-05T19:35:03.026Z,4.63
2023-02-05T19:40:02.266Z,4.15
2023-02-05T19:45:02.481Z,4.75
2023-02-05T19:50:02.855Z,3.72
2023-02-05T19:55:03.414Z,5.00
2023-02-05T20:00:02.660Z,4.22
2023-02-05T20:05:03.437Z,4.18
2023-02-05T20:10:02.972Z,4.97
2023-02-05T20:15:02.086Z,4.20
2023-02-05T20:20:13.965Z,4.35
2023-02-05T20:25:03.168Z,4.03
2023-02-05T20:30:02.407Z,6.00
2023-02-05T20:35:03.180Z,4.35
2023-02-05T20:40:02.418Z,4.55
2023-02-05T20:45:02.669Z,5.35
2023-02-05T20:50:02.995Z,4.55
2023-02-05T20:55:02.539Z,4.15
2023-02-05T21:00:02.759Z,5.57
2023-02-05T21:05:03.223Z,4.65
2023-02-05T21:10:02.828Z,4.65
2023-02-05T21:15:03.366Z,4.57
2023-02-05T21:20:04.770Z,4.95
2023-02-05T21:25:03.373Z,4.88
2023-02-05T21:30:02.887Z,4.30
2023-02-05T21:35:03.803Z,4.10
2023-02-05T21:40:09.129Z,4.32
2023-02-05T21:45:02.759Z,4.93
2023-02-05T21:50:03.141Z,3.60
2023-02-05T21:55:02.316Z,4.53
2023-02-05T22:00:02.764Z,3.53
2023-02-05T22:05:03.823Z,4.68
2023-02-05T22:10:03.493Z,4.60
2023-02-05T22:15:03.058Z,4.95
2023-02-05T22:20:02.632Z,4.07
2023-02-05T22:25:02.951Z,3.85
2023-02-05T22:30:02.451Z,4.30
2023-02-05T22:35:03.122Z,4.18
2023-02-05T22:40:02.618Z,4.20
2023-02-05T22:45:02.867Z,4.78
2023-02-05T22:50:03.423Z,4.57
2023-02-05T22:55:02.512Z,4.22
2023-02-05T23:00:03.150Z,5.00
2023-02-05T23:05:15.060Z,5.28
2023-02-05T23:10:07.990Z,3.80
2023-02-05T23:15:07.905Z,4.18
2023-02-05T23:20:08.836Z,4.10
2023-02-05T23:25:08.813Z,4.00
2023-02-05T23:30:08.714Z,4.60
2023-02-05T23:35:08.706Z,4.32
2023-02-05T23:40:08.717Z,4.25
2023-02-05T23:45:08.673Z,4.43
2023-02-05T23:50:08.628Z,3.85
2023-02-05T23:55:08.628Z,4.10
